sensor_id;sensor_type;location;lat;lon;timestamp;pressure;altitude;pressure_sealevel;temperature;humidity
59987;BME280;46181;51.498;5.392;2022-11-20T00:00:00;101199.6;;;3.73;54.1543
59987;BME280;46181;51.498;5.392;2022-11-20T00:04:30;101211.1;;;3.69;54.27148
59987;BME280;46181;51.498;5.392;2022-11-20T00:09:02;101205.2;;;3.66;54.32324
59987;BME280;46181;51.498;5.392;2022-11-20T00:13:30;101206;;;3.63;54.38574
59987;BME280;46181;51.498;5.392;2022-11-20T00:18:00;101205.1;;;3.59;54.44629
59987;BME280;46181;51.498;5.392;2022-11-20T00:22:30;101207;;;3.55;54.53027
59987;BME280;46181;51.498;5.392;2022-11-20T00:27:00;101198;;;3.48;54.58887
59987;BME280;46181;51.498;5.392;2022-11-20T00:31:30;101191.7;;;3.46;54.67383
59987;BME280;46181;51.498;5.392;2022-11-20T00:36:03;101204.5;;;3.42;54.76953
59987;BME280;46181;51.498;5.392;2022-11-20T00:40:30;101202.4;;;3.4;54.85547
59987;BME280;46181;51.498;5.392;2022-11-20T00:45:00;101201.7;;;3.38;54.88672
59987;BME280;46181;51.498;5.392;2022-11-20T00:49:30;101196.6;;;3.34;54.96973
59987;BME280;46181;51.498;5.392;2022-11-20T00:54:00;101199.3;;;3.31;55.04395
59987;BME280;46181;51.498;5.392;2022-11-20T00:58:32;101204.8;;;3.29;55.12891
59987;BME280;46181;51.498;5.392;2022-11-20T01:03:00;101198.9;;;3.29;55.16211
59987;BME280;46181;51.498;5.392;2022-11-20T01:07:30;101201.2;;;3.27;55.25781
59987;BME280;46181;51.498;5.392;2022-11-20T01:12:00;101199.2;;;3.22;55.36328
59987;BME280;46181;51.498;5.392;2022-11-20T01:16:32;101200.6;;;3.18;55.41504
59987;BME280;46181;51.498;5.392;2022-11-20T01:21:03;101200.6;;;3.18;55.46875
59987;BME280;46181;51.498;5.392;2022-11-20T01:25:30;101211.1;;;3.14;55.55273
59987;BME280;46181;51.498;5.392;2022-11-20T01:30:00;101203.3;;;3.24;55.75293
59987;BME280;46181;51.498;5.392;2022-11-20T01:34:31;101197.5;;;3.36;55.80273
59987;BME280;46181;51.498;5.392;2022-11-20T01:39:02;101180.5;;;3.45;55.69238
59987;BME280;46181;51.498;5.392;2022-11-20T01:43:30;101186.9;;;3.48;55.56445
59987;BME280;46181;51.498;5.392;2022-11-20T01:48:00;101186.5;;;3.46;55.52832
59987;BME280;46181;51.498;5.392;2022-11-20T01:52:32;101192.5;;;3.41;55.59863
59987;BME280;46181;51.498;5.392;2022-11-20T01:57:03;101202.6;;;3.37;55.69336
59987;BME280;46181;51.498;5.392;2022-11-20T02:01:30;101196.1;;;3.35;55.7793
59987;BME280;46181;51.498;5.392;2022-11-20T02:06:04;101187.2;;;3.33;55.79883
59987;BME280;46181;51.498;5.392;2022-11-20T02:10:30;101187.7;;;3.36;55.90234
59987;BME280;46181;51.498;5.392;2022-11-20T02:15:00;101186.7;;;3.35;55.92285
59987;BME280;46181;51.498;5.392;2022-11-20T02:19:33;101178.5;;;3.32;55.98535
59987;BME280;46181;51.498;5.392;2022-11-20T02:24:08;101184.1;;;3.26;56.21094
59987;BME280;46181;51.498;5.392;2022-11-20T02:28:30;101180.3;;;3.3;56.03809
59987;BME280;46181;51.498;5.392;2022-11-20T02:33:01;101182.4;;;3.31;56.0957
59987;BME280;46181;51.498;5.392;2022-11-20T02:37:31;101180.1;;;3.36;56.14746
59987;BME280;46181;51.498;5.392;2022-11-20T02:42:01;101179;;;3.42;56.1416
59987;BME280;46181;51.498;5.392;2022-11-20T02:46:30;101178.8;;;3.5;56.23047
59987;BME280;46181;51.498;5.392;2022-11-20T02:51:00;101182.7;;;3.7;56.22363
59987;BME280;46181;51.498;5.392;2022-11-20T02:55:30;101174.4;;;3.9;56.08496
59987;BME280;46181;51.498;5.392;2022-11-20T03:00:00;101171;;;4.09;55.94043
59987;BME280;46181;51.498;5.392;2022-11-20T03:04:30;101170.6;;;4.24;55.77344
59987;BME280;46181;51.498;5.392;2022-11-20T03:09:00;101164.7;;;4.36;55.63379
59987;BME280;46181;51.498;5.392;2022-11-20T03:13:30;101164.1;;;4.47;55.53613
59987;BME280;46181;51.498;5.392;2022-11-20T03:18:01;101166.6;;;4.53;55.52246
59987;BME280;46181;51.498;5.392;2022-11-20T03:22:32;101163;;;4.59;55.39648
59987;BME280;46181;51.498;5.392;2022-11-20T03:27:00;101162.5;;;4.58;55.35059
59987;BME280;46181;51.498;5.392;2022-11-20T03:31:32;101157.2;;;4.58;55.38379
59987;BME280;46181;51.498;5.392;2022-11-20T03:36:05;101152.5;;;4.56;55.29297
59987;BME280;46181;51.498;5.392;2022-11-20T03:40:30;101145.9;;;4.59;55.31836
59987;BME280;46181;51.498;5.392;2022-11-20T03:45:00;101130.7;;;4.49;55.20605
59987;BME280;46181;51.498;5.392;2022-11-20T03:49:30;101128;;;4.47;55.33594
59987;BME280;46181;51.498;5.392;2022-11-20T03:54:04;101128.8;;;4.43;55.28711
59987;BME280;46181;51.498;5.392;2022-11-20T03:58:30;101121.4;;;4.4;55.29297
59987;BME280;46181;51.498;5.392;2022-11-20T04:03:01;101118.2;;;4.3;55.30371
59987;BME280;46181;51.498;5.392;2022-11-20T04:07:30;101115.8;;;4.25;55.41992
59987;BME280;46181;51.498;5.392;2022-11-20T04:12:00;101120.2;;;4.21;55.48145
59987;BME280;46181;51.498;5.392;2022-11-20T04:16:33;101118.8;;;4.22;55.55859
59987;BME280;46181;51.498;5.392;2022-11-20T04:21:00;101117.1;;;4.26;55.66406
59987;BME280;46181;51.498;5.392;2022-11-20T04:25:30;101117;;;4.3;55.61426
59987;BME280;46181;51.498;5.392;2022-11-20T04:30:00;101111.5;;;4.29;55.47949
59987;BME280;46181;51.498;5.392;2022-11-20T04:34:30;101112.4;;;4.24;55.62891
59987;BME280;46181;51.498;5.392;2022-11-20T04:39:04;101111.5;;;4.22;55.68066
59987;BME280;46181;51.498;5.392;2022-11-20T04:43:30;101110.1;;;4.27;55.63184
59987;BME280;46181;51.498;5.392;2022-11-20T04:48:00;101105.6;;;4.3;55.625
59987;BME280;46181;51.498;5.392;2022-11-20T04:52:30;101103.6;;;4.29;55.60254
59987;BME280;46181;51.498;5.392;2022-11-20T04:57:00;101102.8;;;4.3;55.62598
59987;BME280;46181;51.498;5.392;2022-11-20T05:01:31;101100.2;;;4.31;55.71582
59987;BME280;46181;51.498;5.392;2022-11-20T05:06:00;101093;;;4.33;55.65137
59987;BME280;46181;51.498;5.392;2022-11-20T05:10:30;101091;;;4.35;55.65234
59987;BME280;46181;51.498;5.392;2022-11-20T05:15:00;101088.2;;;4.34;55.66406
59987;BME280;46181;51.498;5.392;2022-11-20T05:19:30;101082.8;;;4.34;55.68652
59987;BME280;46181;51.498;5.392;2022-11-20T05:24:00;101073.7;;;4.39;55.73633
59987;BME280;46181;51.498;5.392;2022-11-20T05:28:31;101073.1;;;4.43;55.66406
59987;BME280;46181;51.498;5.392;2022-11-20T05:33:00;101068;;;4.45;55.64453
59987;BME280;46181;51.498;5.392;2022-11-20T05:37:30;101070.6;;;4.49;55.67285
59987;BME280;46181;51.498;5.392;2022-11-20T05:42:00;101072.8;;;4.51;55.5752
59987;BME280;46181;51.498;5.392;2022-11-20T05:46:30;101074.8;;;4.62;55.63379
59987;BME280;46181;51.498;5.392;2022-11-20T05:51:01;101081;;;4.71;55.57813
59987;BME280;46181;51.498;5.392;2022-11-20T05:55:30;101087.1;;;4.8;55.5459
59987;BME280;46181;51.498;5.392;2022-11-20T06:00:00;101092.1;;;4.86;55.45215
59987;BME280;46181;51.498;5.392;2022-11-20T06:04:30;101103.7;;;4.93;55.41797
59987;BME280;46181;51.498;5.392;2022-11-20T06:09:00;101103.8;;;5.02;55.48438
59987;BME280;46181;51.498;5.392;2022-11-20T06:13:30;101102.3;;;5.15;55.40137
59987;BME280;46181;51.498;5.392;2022-11-20T06:18:00;101098.3;;;5.26;55.36133
59987;BME280;46181;51.498;5.392;2022-11-20T06:22:30;101088.5;;;5.32;55.32324
59987;BME280;46181;51.498;5.392;2022-11-20T06:27:00;101085;;;5.4;55.26563
59987;BME280;46181;51.498;5.392;2022-11-20T06:31:31;101100.4;;;5.46;55.2627
59987;BME280;46181;51.498;5.392;2022-11-20T06:36:00;101095.1;;;5.53;55.35059
59987;BME280;46181;51.498;5.392;2022-11-20T06:40:30;101083.4;;;5.59;55.30371
59987;BME280;46181;51.498;5.392;2022-11-20T06:45:00;101082.3;;;5.62;55.20605
59987;BME280;46181;51.498;5.392;2022-11-20T06:49:30;101085.9;;;5.6;55.25879
59987;BME280;46181;51.498;5.392;2022-11-20T06:54:00;101077.4;;;5.61;55.32715
59987;BME280;46181;51.498;5.392;2022-11-20T06:58:30;101083.1;;;5.59;55.27051
59987;BME280;46181;51.498;5.392;2022-11-20T07:03:00;101075.8;;;5.51;55.24805
59987;BME280;46181;51.498;5.392;2022-11-20T07:07:30;101087.8;;;5.49;55.43457
59987;BME280;46181;51.498;5.392;2022-11-20T07:12:00;101085.8;;;5.55;55.53027
59987;BME280;46181;51.498;5.392;2022-11-20T07:16:30;101073.1;;;5.57;55.51172
59987;BME280;46181;51.498;5.392;2022-11-20T07:21:04;101070.5;;;5.57;55.51172
59987;BME280;46181;51.498;5.392;2022-11-20T07:25:30;101073.7;;;5.58;55.52344
59987;BME280;46181;51.498;5.392;2022-11-20T07:30:00;101078.5;;;5.57;55.58984
59987;BME280;46181;51.498;5.392;2022-11-20T07:34:30;101062.3;;;5.58;55.53516
59987;BME280;46181;51.498;5.392;2022-11-20T07:39:00;101059.7;;;5.55;55.49707
59987;BME280;46181;51.498;5.392;2022-11-20T07:43:30;101064.5;;;5.51;55.625
59987;BME280;46181;51.498;5.392;2022-11-20T07:48:02;101065;;;5.53;55.78418
59987;BME280;46181;51.498;5.392;2022-11-20T07:52:30;101072.1;;;5.64;55.8877
59987;BME280;46181;51.498;5.392;2022-11-20T07:57:00;101067.7;;;5.78;55.85059
59987;BME280;46181;51.498;5.392;2022-11-20T08:01:30;101074.9;;;5.91;55.82324
59987;BME280;46181;51.498;5.392;2022-11-20T08:06:02;101073.7;;;6.05;55.69629
59987;BME280;46181;51.498;5.392;2022-11-20T08:10:30;101067.8;;;6.13;55.57227
59987;BME280;46181;51.498;5.392;2022-11-20T08:15:00;101067.3;;;6.19;55.55859
59987;BME280;46181;51.498;5.392;2022-11-20T08:19:30;101075;;;6.27;55.5459
59987;BME280;46181;51.498;5.392;2022-11-20T08:24:00;101070.8;;;6.34;55.55469
59987;BME280;46181;51.498;5.392;2022-11-20T08:28:30;101064;;;6.37;55.60254
59987;BME280;46181;51.498;5.392;2022-11-20T08:33:04;101068.6;;;6.44;55.73535
59987;BME280;46181;51.498;5.392;2022-11-20T08:37:30;101070.2;;;6.56;55.7832
59987;BME280;46181;51.498;5.392;2022-11-20T08:42:00;101062.6;;;6.66;55.84082
59987;BME280;46181;51.498;5.392;2022-11-20T08:46:31;101062.4;;;6.76;55.84277
59987;BME280;46181;51.498;5.392;2022-11-20T08:51:01;101060.5;;;6.87;55.8125
59987;BME280;46181;51.498;5.392;2022-11-20T08:55:30;101062.2;;;6.95;55.88086
59987;BME280;46181;51.498;5.392;2022-11-20T09:00:00;101055.8;;;7.05;55.87012
59987;BME280;46181;51.498;5.392;2022-11-20T09:04:30;101049.7;;;7.11;55.88867
59987;BME280;46181;51.498;5.392;2022-11-20T09:09:00;101052.1;;;7.21;55.96875
59987;BME280;46181;51.498;5.392;2022-11-20T09:13:31;101047.5;;;7.28;56.02148
59987;BME280;46181;51.498;5.392;2022-11-20T09:18:03;101039.3;;;7.35;56.06348
59987;BME280;46181;51.498;5.392;2022-11-20T09:22:30;101041.8;;;7.48;55.99121
59987;BME280;46181;51.498;5.392;2022-11-20T09:27:00;101033.3;;;7.52;56.04199
59987;BME280;46181;51.498;5.392;2022-11-20T09:31:31;101019.2;;;7.57;56.13867
59987;BME280;46181;51.498;5.392;2022-11-20T09:36:00;101020.7;;;7.66;56.17285
59987;BME280;46181;51.498;5.392;2022-11-20T09:40:33;101009.9;;;7.71;56.26758
59987;BME280;46181;51.498;5.392;2022-11-20T09:45:18;101001.3;;;7.76;56.3418
59987;BME280;46181;51.498;5.392;2022-11-20T09:49:42;101003.8;;;7.87;56.2334
59987;BME280;46181;51.498;5.392;2022-11-20T09:54:19;100997.3;;;7.93;56.30762
59987;BME280;46181;51.498;5.392;2022-11-20T09:58:35;100990.8;;;8.07;56.11426
59987;BME280;46181;51.498;5.392;2022-11-20T10:03:03;100977.4;;;8.13;56.04199
59987;BME280;46181;51.498;5.392;2022-11-20T10:07:32;100972.6;;;8.17;56.11523
59987;BME280;46181;51.498;5.392;2022-11-20T10:12:09;100964.1;;;8.19;56.16211
59987;BME280;46181;51.498;5.392;2022-11-20T10:16:38;100947.8;;;8.23;56.21289
59987;BME280;46181;51.498;5.392;2022-11-20T10:21:08;100928.9;;;8.3;56.18848
59987;BME280;46181;51.498;5.392;2022-11-20T10:25:34;100918.4;;;8.36;56.07324
59987;BME280;46181;51.498;5.392;2022-11-20T10:30:11;100930.4;;;8.35;56.25098
59987;BME280;46181;51.498;5.392;2022-11-20T10:34:34;100919;;;8.4;56.05469
59987;BME280;46181;51.498;5.392;2022-11-20T10:39:03;100909.7;;;8.44;56.26172
59987;BME280;46181;51.498;5.392;2022-11-20T10:43:35;100902.2;;;8.48;56.32422
59987;BME280;46181;51.498;5.392;2022-11-20T10:48:07;100888.5;;;8.52;56.26074
59987;BME280;46181;51.498;5.392;2022-11-20T10:52:37;100878.2;;;8.54;56.33203
59987;BME280;46181;51.498;5.392;2022-11-20T10:57:02;100876.4;;;8.65;56.22266
59987;BME280;46181;51.498;5.392;2022-11-20T11:01:30;100863.6;;;8.7;56.28418
59987;BME280;46181;51.498;5.392;2022-11-20T11:06:06;100861.2;;;8.74;56.32422
59987;BME280;46181;51.498;5.392;2022-11-20T11:10:35;100860.5;;;8.73;56.33301
59987;BME280;46181;51.498;5.392;2022-11-20T11:15:01;100855.7;;;8.81;56.41113
59987;BME280;46181;51.498;5.392;2022-11-20T11:19:30;100855.3;;;8.88;56.4873
59987;BME280;46181;51.498;5.392;2022-11-20T11:24:14;100851.5;;;8.85;56.71973
59987;BME280;46181;51.498;5.392;2022-11-20T11:28:33;100850.6;;;8.86;57.03418
59987;BME280;46181;51.498;5.392;2022-11-20T11:33:23;100840.2;;;8.76;57.43555
59987;BME280;46181;51.498;5.392;2022-11-20T11:37:32;100839.6;;;8.81;57.46484
59987;BME280;46181;51.498;5.392;2022-11-20T11:42:00;100828.5;;;8.77;57.60547
59987;BME280;46181;51.498;5.392;2022-11-20T11:46:39;100820.8;;;8.68;57.95215
59987;BME280;46181;51.498;5.392;2022-11-20T11:51:01;100811.5;;;8.75;58.07422
59987;BME280;46181;51.498;5.392;2022-11-20T11:55:38;100808.1;;;8.74;58.20801
59987;BME280;46181;51.498;5.392;2022-11-20T12:00:10;100796.8;;;8.76;58.36621
59987;BME280;46181;51.498;5.392;2022-11-20T12:04:42;100783.8;;;8.79;58.50488
59987;BME280;46181;51.498;5.392;2022-11-20T12:09:03;100758.4;;;8.84;58.47852
59987;BME280;46181;51.498;5.392;2022-11-20T12:13:39;100745.4;;;8.83;58.71289
59987;BME280;46181;51.498;5.392;2022-11-20T12:18:00;100739.7;;;8.91;58.94727
59987;BME280;46181;51.498;5.392;2022-11-20T12:22:38;100727.7;;;8.96;59.34668
59987;BME280;46181;51.498;5.392;2022-11-20T12:27:32;100721.1;;;8.99;59.70898
59987;BME280;46181;51.498;5.392;2022-11-20T12:31:44;100716;;;9.09;59.73535
59987;BME280;46181;51.498;5.392;2022-11-20T12:36:11;100707.3;;;9.24;59.66504
59987;BME280;46181;51.498;5.392;2022-11-20T12:40:38;100698.8;;;9.29;59.56055
59987;BME280;46181;51.498;5.392;2022-11-20T12:49:41;100678.3;;;9.41;59.82422
59987;BME280;46181;51.498;5.392;2022-11-20T12:54:11;100667.3;;;9.55;59.96582
59987;BME280;46181;51.498;5.392;2022-11-20T12:58:38;100644.3;;;9.67;59.84766
59987;BME280;46181;51.498;5.392;2022-11-20T13:07:33;100620.1;;;9.92;59.87109
59987;BME280;46181;51.498;5.392;2022-11-20T13:12:08;100611.7;;;10.03;60.00977
59987;BME280;46181;51.498;5.392;2022-11-20T13:16:36;100609.5;;;10.13;59.82129
59987;BME280;46181;51.498;5.392;2022-11-20T13:21:00;100595.1;;;10.22;59.73242
59987;BME280;46181;51.498;5.392;2022-11-20T13:25:38;100587.1;;;10.19;59.86328
59987;BME280;46181;51.498;5.392;2022-11-20T13:30:22;100577.9;;;10.06;60.1709
59987;BME280;46181;51.498;5.392;2022-11-20T13:34:36;100567.6;;;10.14;60.05859
59987;BME280;46181;51.498;5.392;2022-11-20T13:39:01;100561.1;;;10.21;60.0459
59987;BME280;46181;51.498;5.392;2022-11-20T13:43:43;100551.5;;;10.15;60.31836
59987;BME280;46181;51.498;5.392;2022-11-20T13:48:02;100545;;;10.22;60.14844
59987;BME280;46181;51.498;5.392;2022-11-20T13:52:45;100542;;;10.16;60.36621
59987;BME280;46181;51.498;5.392;2022-11-20T13:57:08;100539;;;10.2;60.31445
59987;BME280;46181;51.498;5.392;2022-11-20T14:01:32;100524.8;;;10.28;60.25781
59987;BME280;46181;51.498;5.392;2022-11-20T14:06:05;100518.4;;;10.28;60.31348
59987;BME280;46181;51.498;5.392;2022-11-20T14:10:33;100503.7;;;10.3;60.30469
59987;BME280;46181;51.498;5.392;2022-11-20T14:15:01;100496.7;;;10.31;60.30566
59987;BME280;46181;51.498;5.392;2022-11-20T14:19:39;100490.5;;;10.26;60.46777
59987;BME280;46181;51.498;5.392;2022-11-20T14:24:10;100492;;;10.27;60.48047
59987;BME280;46181;51.498;5.392;2022-11-20T14:28:34;100490.9;;;10.2;60.54883
59987;BME280;46181;51.498;5.392;2022-11-20T14:33:03;100483.2;;;10.11;60.60547
59987;BME280;46181;51.498;5.392;2022-11-20T14:37:33;100479.3;;;10.02;60.88379
59987;BME280;46181;51.498;5.392;2022-11-20T14:42:03;100472.1;;;9.97;61.05762
59987;BME280;46181;51.498;5.392;2022-11-20T14:46:31;100464.7;;;9.96;61.17969
59987;BME280;46181;51.498;5.392;2022-11-20T14:51:00;100454.9;;;9.92;61.34277
59987;BME280;46181;51.498;5.392;2022-11-20T14:55:41;100431.5;;;9.8;61.67285
59987;BME280;46181;51.498;5.392;2022-11-20T15:00:18;100418.9;;;9.75;61.96875
59987;BME280;46181;51.498;5.392;2022-11-20T15:04:31;100396.9;;;9.83;61.91406
59987;BME280;46181;51.498;5.392;2022-11-20T15:09:03;100393.8;;;9.85;62.12988
59987;BME280;46181;51.498;5.392;2022-11-20T15:13:34;100386.3;;;9.85;62.28711
59987;BME280;46181;51.498;5.392;2022-11-20T15:18:01;100378.1;;;9.89;62.45996
59987;BME280;46181;51.498;5.392;2022-11-20T15:22:30;100373.5;;;9.9;62.64258
59987;BME280;46181;51.498;5.392;2022-11-20T15:27:00;100362.9;;;9.93;62.75879
59987;BME280;46181;51.498;5.392;2022-11-20T15:31:32;100357.7;;;9.95;62.83984
59987;BME280;46181;51.498;5.392;2022-11-20T15:36:00;100346.1;;;9.96;62.89746
59987;BME280;46181;51.498;5.392;2022-11-20T15:40:30;100339.3;;;10;63.03809
59987;BME280;46181;51.498;5.392;2022-11-20T15:45:00;100328.5;;;9.99;63.09375
59987;BME280;46181;51.498;5.392;2022-11-20T15:49:30;100314.7;;;9.98;63.19141
59987;BME280;46181;51.498;5.392;2022-11-20T15:54:01;100306.9;;;10;63.46484
59987;BME280;46181;51.498;5.392;2022-11-20T15:58:30;100303.6;;;10.05;63.66211
59987;BME280;46181;51.498;5.392;2022-11-20T16:03:00;100293.4;;;10.08;63.56543
59987;BME280;46181;51.498;5.392;2022-11-20T16:07:30;100291.3;;;10.12;63.66016
59987;BME280;46181;51.498;5.392;2022-11-20T16:12:00;100280.4;;;10.11;63.75
59987;BME280;46181;51.498;5.392;2022-11-20T16:16:33;100274.9;;;10.15;63.93555
59987;BME280;46181;51.498;5.392;2022-11-20T16:21:02;100271.7;;;10.21;64.02441
59987;BME280;46181;51.498;5.392;2022-11-20T16:25:30;100263;;;10.29;63.84375
59987;BME280;46181;51.498;5.392;2022-11-20T16:30:00;100257;;;10.36;63.84277
59987;BME280;46181;51.498;5.392;2022-11-20T16:34:30;100253.4;;;10.42;63.89648
59987;BME280;46181;51.498;5.392;2022-11-20T16:39:05;100251.6;;;10.45;64.00098
59987;BME280;46181;51.498;5.392;2022-11-20T16:43:31;100248.6;;;10.54;63.94727
59987;BME280;46181;51.498;5.392;2022-11-20T16:48:00;100238.6;;;10.61;63.90039
59987;BME280;46181;51.498;5.392;2022-11-20T16:52:30;100213.5;;;10.64;63.89551
59987;BME280;46181;51.498;5.392;2022-11-20T16:57:00;100199.7;;;10.7;64.14063
59987;BME280;46181;51.498;5.392;2022-11-20T17:01:31;100195;;;10.74;64.38184
59987;BME280;46181;51.498;5.392;2022-11-20T17:06:00;100177.1;;;10.79;64.87305
59987;BME280;46181;51.498;5.392;2022-11-20T17:10:31;100183.9;;;10.85;64.91406
59987;BME280;46181;51.498;5.392;2022-11-20T17:15:01;100174.7;;;10.91;64.94531
59987;BME280;46181;51.498;5.392;2022-11-20T17:19:30;100157.9;;;10.93;65.0957
59987;BME280;46181;51.498;5.392;2022-11-20T17:24:03;100137.1;;;10.99;65.38477
59987;BME280;46181;51.498;5.392;2022-11-20T17:28:31;100131.6;;;11.03;65.75293
59987;BME280;46181;51.498;5.392;2022-11-20T17:33:01;100119.1;;;11.09;66.11914
59987;BME280;46181;51.498;5.392;2022-11-20T17:37:30;100118.8;;;11.16;66.35547
59987;BME280;46181;51.498;5.392;2022-11-20T17:42:00;100122.8;;;11.26;66.6416
59987;BME280;46181;51.498;5.392;2022-11-20T17:46:33;100138.6;;;11.35;66.87891
59987;BME280;46181;51.498;5.392;2022-11-20T17:51:03;100143.3;;;11.43;66.87988
59987;BME280;46181;51.498;5.392;2022-11-20T17:55:31;100152;;;11.49;67.02441
59987;BME280;46181;51.498;5.392;2022-11-20T18:00:00;100144.7;;;11.54;66.99902
59987;BME280;46181;51.498;5.392;2022-11-20T18:04:31;100168;;;11.58;67.11719
59987;BME280;46181;51.498;5.392;2022-11-20T18:09:02;100179;;;11.59;67.2998
59987;BME280;46181;51.498;5.392;2022-11-20T18:13:30;100175.9;;;11.61;67.2793
59987;BME280;46181;51.498;5.392;2022-11-20T18:18:01;100184.8;;;11.6;67.38965
59987;BME280;46181;51.498;5.392;2022-11-20T18:22:30;100199.7;;;11.62;67.30371
59987;BME280;46181;51.498;5.392;2022-11-20T18:27:01;100209.6;;;11.64;67.30566
59987;BME280;46181;51.498;5.392;2022-11-20T18:31:31;100215.6;;;11.62;67.20117
59987;BME280;46181;51.498;5.392;2022-11-20T18:36:00;100217.5;;;11.63;67.13574
59987;BME280;46181;51.498;5.392;2022-11-20T18:40:31;100219.6;;;11.63;67.12402
59987;BME280;46181;51.498;5.392;2022-11-20T18:45:01;100218.4;;;11.63;67.09082
59987;BME280;46181;51.498;5.392;2022-11-20T18:49:31;100217.1;;;11.63;67.09082
59987;BME280;46181;51.498;5.392;2022-11-20T18:54:01;100215.7;;;11.59;66.92871
59987;BME280;46181;51.498;5.392;2022-11-20T18:58:31;100222.3;;;11.57;66.91309
59987;BME280;46181;51.498;5.392;2022-11-20T19:03:04;100228.5;;;11.55;66.87695
59987;BME280;46181;51.498;5.392;2022-11-20T19:07:31;100229.3;;;11.57;66.76855
59987;BME280;46181;51.498;5.392;2022-11-20T19:12:01;100232.6;;;11.62;66.69531
59987;BME280;46181;51.498;5.392;2022-11-20T19:16:31;100237.8;;;11.65;66.66699
59987;BME280;46181;51.498;5.392;2022-11-20T19:21:01;100244.2;;;11.66;66.47559
59987;BME280;46181;51.498;5.392;2022-11-20T19:25:31;100244.8;;;11.63;66.4375
59987;BME280;46181;51.498;5.392;2022-11-20T19:30:01;100258;;;11.62;66.36816
59987;BME280;46181;51.498;5.392;2022-11-20T19:34:31;100251.6;;;11.59;66.39941
59987;BME280;46181;51.498;5.392;2022-11-20T19:39:02;100263.2;;;11.59;66.38672
59987;BME280;46181;51.498;5.392;2022-11-20T19:43:31;100268.5;;;11.62;66.29102
59987;BME280;46181;51.498;5.392;2022-11-20T19:48:01;100263;;;11.63;66.24609
59987;BME280;46181;51.498;5.392;2022-11-20T19:52:31;100256.4;;;11.56;66.16895
59987;BME280;46181;51.498;5.392;2022-11-20T19:57:01;100257.9;;;11.5;66.1709
59987;BME280;46181;51.498;5.392;2022-11-20T20:01:32;100265.3;;;11.43;66.11328
59987;BME280;46181;51.498;5.392;2022-11-20T20:06:04;100269.1;;;11.34;66.13672
59987;BME280;46181;51.498;5.392;2022-11-20T20:10:31;100268.5;;;11.26;66.22559
59987;BME280;46181;51.498;5.392;2022-11-20T20:15:01;100278.7;;;11.22;66.35352
59987;BME280;46181;51.498;5.392;2022-11-20T20:19:31;100281.9;;;11.19;66.37207
59987;BME280;46181;51.498;5.392;2022-11-20T20:24:03;100288.4;;;11.22;66.41016
59987;BME280;46181;51.498;5.392;2022-11-20T20:28:31;100293.6;;;11.26;66.42676
59987;BME280;46181;51.498;5.392;2022-11-20T20:33:01;100299.8;;;11.33;66.38281
59987;BME280;46181;51.498;5.392;2022-11-20T20:37:31;100308.2;;;11.41;66.11133
59987;BME280;46181;51.498;5.392;2022-11-20T20:42:01;100296.3;;;11.41;65.97754
59987;BME280;46181;51.498;5.392;2022-11-20T20:46:31;100296.1;;;11.4;65.89746
59987;BME280;46181;51.498;5.392;2022-11-20T20:51:08;100293.5;;;11.36;66.06055
59987;BME280;46181;51.498;5.392;2022-11-20T20:55:31;100309.9;;;11.42;66.0459
59987;BME280;46181;51.498;5.392;2022-11-20T21:00:01;100312.3;;;11.47;65.99805
59987;BME280;46181;51.498;5.392;2022-11-20T21:04:31;100331.8;;;11.46;65.97363
59987;BME280;46181;51.498;5.392;2022-11-20T21:09:01;100332.1;;;11.45;65.92676
59987;BME280;46181;51.498;5.392;2022-11-20T21:13:31;100321.5;;;11.42;65.86621
59987;BME280;46181;51.498;5.392;2022-11-20T21:18:01;100312.3;;;11.42;65.92188
59987;BME280;46181;51.498;5.392;2022-11-20T21:22:31;100322;;;11.41;66.02246
59987;BME280;46181;51.498;5.392;2022-11-20T21:27:01;100324.5;;;11.41;66
59987;BME280;46181;51.498;5.392;2022-11-20T21:31:32;100322.5;;;11.38;65.99512
59987;BME280;46181;51.498;5.392;2022-11-20T21:36:01;100328.6;;;11.37;66.02832
59987;BME280;46181;51.498;5.392;2022-11-20T21:40:31;100339.2;;;11.35;66.11426
59987;BME280;46181;51.498;5.392;2022-11-20T21:45:01;100341.8;;;11.33;66.14453
59987;BME280;46181;51.498;5.392;2022-11-20T21:49:31;100358.6;;;11.38;66.21973
59987;BME280;46181;51.498;5.392;2022-11-20T21:54:01;100347.1;;;11.41;66.16797
59987;BME280;46181;51.498;5.392;2022-11-20T21:58:31;100340.8;;;11.44;66.00488
59987;BME280;46181;51.498;5.392;2022-11-20T22:03:01;100333.5;;;11.4;65.96484
59987;BME280;46181;51.498;5.392;2022-11-20T22:07:31;100344;;;11.33;65.9082
59987;BME280;46181;51.498;5.392;2022-11-20T22:12:01;100355.8;;;11.3;65.97168
59987;BME280;46181;51.498;5.392;2022-11-20T22:16:31;100359.9;;;11.28;65.96973
59987;BME280;46181;51.498;5.392;2022-11-20T22:21:05;100366.9;;;11.28;65.95801
59987;BME280;46181;51.498;5.392;2022-11-20T22:25:31;100368.6;;;11.3;65.99414
59987;BME280;46181;51.498;5.392;2022-11-20T22:30:01;100380.1;;;11.31;65.98438
59987;BME280;46181;51.498;5.392;2022-11-20T22:34:31;100403;;;11.26;65.80957
59987;BME280;46181;51.498;5.392;2022-11-20T22:39:01;100418;;;11.2;65.82227
59987;BME280;46181;51.498;5.392;2022-11-20T22:43:31;100400;;;11.18;65.96582
59987;BME280;46181;51.498;5.392;2022-11-20T22:48:01;100383.9;;;11.21;65.98145
59987;BME280;46181;51.498;5.392;2022-11-20T22:52:31;100381.4;;;11.17;65.88379
59987;BME280;46181;51.498;5.392;2022-11-20T22:57:01;100380.3;;;11.05;65.91113
59987;BME280;46181;51.498;5.392;2022-11-20T23:01:32;100390;;;10.97;66.03418
59987;BME280;46181;51.498;5.392;2022-11-20T23:06:01;100403.2;;;10.98;66.2168
59987;BME280;46181;51.498;5.392;2022-11-20T23:10:31;100422.2;;;11.05;66.25977
59987;BME280;46181;51.498;5.392;2022-11-20T23:15:01;100464.9;;;11.05;66.00195
59987;BME280;46181;51.498;5.392;2022-11-20T23:19:31;100447.3;;;11.05;65.84375